createdAt,value
2023-04-05T00:02:21.916Z,9.05
2023-04-05T00:04:54.888Z,6.65
2023-04-05T00:07:22.402Z,11.35
2023-04-05T00:09:49.698Z,10.48
2023-04-05T00:12:17.021Z,7.03
2023-04-05T00:14:44.383Z,6.97
2023-04-05T00:17:12.792Z,9.40
2023-04-05T00:19:40.146Z,14.45
2023-04-05T00:22:10.650Z,8.90
2023-04-05T00:24:39.147Z,7.72
2023-04-05T00:27:06.360Z,10.77
2023-04-05T00:29:34.268Z,13.73
2023-04-05T00:32:04.795Z,10.65
2023-04-05T00:34:33.776Z,7.93
2023-04-05T00:37:01.490Z,8.27
2023-04-05T00:39:28.833Z,10.32
2023-04-05T00:41:56.544Z,7.68
2023-04-05T00:44:23.875Z,7.65
2023-04-05T00:46:51.661Z,8.68
2023-04-05T00:49:19.005Z,9.80
2023-04-05T00:51:47.012Z,8.75
2023-04-05T00:54:15.349Z,9.23
2023-04-05T00:56:42.948Z,9.77
2023-04-05T00:59:10.142Z,9.77
2023-04-05T01:01:40.756Z,10.10
2023-04-05T01:04:11.728Z,8.32
2023-04-05T01:06:45.032Z,8.77
2023-04-05T01:09:18.889Z,13.18
2023-04-05T01:11:47.567Z,7.72
2023-04-05T01:14:14.921Z,7.82
2023-04-05T01:16:42.101Z,8.55
2023-04-05T01:19:10.368Z,6.95
2023-04-05T01:21:46.154Z,7.47
2023-04-05T01:24:25.276Z,8.32
2023-04-05T01:27:12.470Z,6.50
2023-04-05T01:29:58.327Z,9.07
2023-04-05T01:33:01.150Z,10.05
2023-04-05T01:35:40.138Z,6.80
2023-04-05T01:38:11.398Z,8.00
2023-04-05T01:40:41.077Z,15.10
2023-04-05T01:43:16.094Z,9.52
2023-04-05T01:45:45.539Z,10.50
2023-04-05T01:48:14.202Z,10.52
2023-04-05T01:50:41.633Z,7.13
2023-04-05T01:53:09.393Z,11.05
2023-04-05T01:55:36.978Z,12.07
2023-04-05T01:58:04.348Z,8.15
2023-04-05T02:00:32.752Z,9.45
2023-04-05T02:03:00.120Z,8.45
2023-04-05T02:05:27.482Z,9.10
2023-04-05T02:07:54.714Z,9.10
2023-04-05T02:10:25.459Z,9.57
2023-04-05T02:12:55.013Z,7.97
2023-04-05T02:15:22.324Z,7.22
2023-04-05T02:17:49.625Z,7.88
2023-04-05T02:20:18.499Z,7.45
2023-04-05T02:22:46.404Z,6.65
2023-04-05T02:25:13.943Z,7.22
2023-04-05T02:27:41.337Z,7.55
2023-04-05T02:30:09.561Z,8.43
2023-04-05T02:32:37.018Z,8.65
2023-04-05T02:35:05.360Z,8.18
2023-04-05T02:37:32.734Z,9.27
2023-04-05T02:40:02.162Z,9.07
2023-04-05T02:42:30.469Z,11.50
2023-04-05T02:44:57.655Z,8.35
2023-04-05T02:47:25.062Z,8.38
2023-04-05T02:49:58.447Z,9.90
2023-04-05T02:52:32.345Z,7.68
2023-04-05T02:54:59.900Z,9.60
2023-04-05T02:57:31.237Z,7.10
2023-04-05T03:00:07.195Z,9.52
2023-04-05T03:02:34.918Z,6.90
2023-04-05T03:05:03.652Z,8.07
2023-04-05T03:07:33.396Z,10.05
2023-04-05T03:10:05.197Z,6.95
2023-04-05T03:12:33.416Z,6.97
2023-04-05T03:15:01.035Z,8.82
2023-04-05T03:20:09.058Z,11.40
2023-04-05T03:22:37.085Z,10.87
2023-04-05T03:25:06.490Z,10.05
2023-04-05T03:27:40.355Z,9.68
2023-04-05T03:30:14.392Z,10.32
2023-04-05T03:32:48.631Z,10.15
2023-04-05T03:35:29.453Z,9.23
2023-04-05T03:37:57.517Z,8.68
2023-04-05T03:40:25.557Z,8.35
2023-04-05T03:42:53.641Z,9.43
2023-04-05T03:45:24.367Z,10.57
2023-04-05T03:47:52.597Z,8.57
2023-04-05T03:50:19.884Z,9.27
2023-04-05T03:52:47.229Z,11.70
2023-04-05T03:55:16.943Z,10.38
2023-04-05T03:57:45.412Z,11.05
2023-04-05T04:00:30.113Z,9.60
2023-04-05T04:03:10.733Z,10.27
2023-04-05T04:05:42.506Z,8.02
2023-04-05T04:08:11.130Z,14.27
2023-04-05T04:10:38.976Z,10.10
2023-04-05T04:13:15.698Z,7.70
2023-04-05T04:15:43.482Z,13.07
2023-04-05T04:18:31.001Z,9.65
2023-04-05T04:21:24.916Z,14.05
2023-04-05T04:24:18.751Z,10.95
2023-04-05T04:26:54.677Z,11.07
2023-04-05T04:29:39.240Z,10.35
2023-04-05T04:32:26.965Z,9.77
2023-04-05T04:35:05.823Z,8.10
2023-04-05T04:37:47.408Z,10.90
2023-04-05T04:40:46.636Z,10.38
2023-04-05T04:43:27.409Z,8.75
2023-04-05T04:46:31.460Z,11.95
2023-04-05T04:49:06.224Z,10.70
2023-04-05T04:51:33.901Z,10.52
2023-04-05T04:54:01.348Z,15.90
2023-04-05T04:56:28.803Z,12.85
2023-04-05T04:58:58.335Z,11.50
2023-04-05T05:01:26.653Z,11.43
2023-04-05T05:03:53.949Z,13.60
2023-04-05T05:06:33.788Z,12.82
2023-04-05T05:09:01.346Z,11.10
2023-04-05T05:11:30.174Z,11.55
2023-04-05T05:13:59.228Z,12.98
2023-04-05T05:16:28.548Z,15.95
2023-04-05T05:18:55.738Z,9.80
2023-04-05T05:21:26.854Z,12.13
2023-04-05T05:23:58.444Z,17.08
2023-04-05T05:26:26.515Z,13.90
2023-04-05T05:28:54.164Z,10.40
2023-04-05T05:31:22.901Z,10.48
2023-04-05T05:33:50.910Z,11.93
2023-04-05T05:36:20.117Z,11.15
2023-04-05T05:38:47.731Z,9.98
2023-04-05T05:41:15.087Z,14.80
2023-04-05T05:43:42.232Z,14.80
2023-04-05T05:46:09.754Z,11.27
2023-04-05T05:48:36.997Z,14.00
2023-04-05T05:51:09.805Z,9.63
2023-04-05T05:53:37.852Z,16.65
2023-04-05T05:56:06.408Z,18.58
2023-04-05T05:58:33.720Z,9.85
2023-04-05T06:01:03.774Z,11.57
2023-04-05T06:03:31.234Z,9.00
2023-04-05T06:06:00.066Z,13.45
2023-04-05T06:08:27.904Z,10.30
2023-04-05T06:10:55.447Z,16.25
2023-04-05T06:13:22.702Z,14.23
2023-04-05T06:15:50.981Z,10.80
2023-04-05T06:18:18.379Z,11.35
2023-04-05T06:20:45.805Z,12.90
2023-04-05T06:23:13.451Z,12.68
2023-04-05T06:25:40.994Z,13.18
2023-04-05T06:28:08.330Z,14.20
2023-04-05T06:30:35.610Z,15.57
2023-04-05T06:33:02.930Z,12.15
2023-04-05T06:35:30.496Z,12.82
2023-04-05T06:37:57.955Z,16.95
2023-04-05T06:40:25.446Z,16.98
2023-04-05T06:42:52.727Z,16.98
2023-04-05T06:45:24.015Z,16.85
2023-04-05T06:47:51.607Z,15.88
2023-04-05T06:50:18.832Z,17.13
2023-04-05T06:52:46.432Z,18.02
2023-04-05T06:55:13.898Z,18.77
2023-04-05T06:57:41.313Z,21.73
2023-04-05T07:00:13.230Z,18.15
2023-04-05T07:02:40.948Z,17.90
2023-04-05T07:05:08.958Z,24.30
2023-04-05T07:07:41.085Z,21.30
2023-04-05T07:10:09.136Z,17.63
2023-04-05T07:12:37.000Z,19.58
2023-04-05T07:15:04.709Z,16.27
2023-04-05T07:17:32.171Z,12.30
2023-04-05T07:19:59.533Z,18.95
2023-04-05T07:22:27.164Z,14.13
2023-04-05T07:24:55.696Z,12.45
2023-04-05T07:27:23.131Z,14.23
2023-04-05T07:29:50.595Z,12.57
2023-04-05T07:32:17.861Z,13.85
2023-04-05T07:34:45.914Z,13.13
2023-04-05T07:37:13.252Z,11.60
2023-04-05T07:39:40.975Z,12.85
2023-04-05T07:42:08.264Z,13.38
2023-04-05T07:44:35.571Z,11.52
2023-04-05T07:47:04.220Z,12.98
2023-04-05T07:49:31.527Z,12.15
2023-04-05T07:51:58.889Z,13.70
2023-04-05T07:54:26.727Z,10.43
2023-04-05T07:56:57.652Z,15.18
2023-04-05T07:59:25.262Z,13.85
2023-04-05T08:01:52.886Z,13.52
2023-04-05T08:04:26.361Z,11.98
2023-04-05T08:06:53.698Z,13.77
2023-04-05T08:09:21.459Z,14.23
2023-04-05T08:11:48.905Z,12.35
2023-04-05T08:14:16.379Z,13.57
2023-04-05T08:16:44.218Z,20.15
2023-04-05T08:19:12.663Z,16.48
2023-04-05T08:21:41.329Z,13.25
2023-04-05T08:24:08.687Z,12.50
2023-04-05T08:26:35.999Z,11.95
2023-04-05T08:29:03.459Z,13.07
2023-04-05T08:31:31.336Z,11.77
2023-04-05T08:33:58.715Z,13.27
2023-04-05T08:36:26.889Z,13.77
2023-04-05T08:38:54.173Z,13.00
2023-04-05T08:41:26.307Z,17.17
2023-04-05T08:44:02.804Z,16.27
2023-04-05T08:46:35.299Z,15.30
2023-04-05T08:49:11.725Z,14.55
2023-04-05T08:51:39.580Z,17.60
2023-04-05T08:54:07.141Z,14.27
2023-04-05T08:56:36.016Z,11.52
2023-04-05T08:59:11.304Z,12.52
2023-04-05T09:01:43.005Z,13.80
2023-04-05T09:04:35.448Z,13.32
2023-04-05T09:07:06.380Z,11.35
2023-04-05T09:09:37.962Z,12.18
2023-04-05T09:12:06.112Z,16.02
2023-04-05T09:14:35.175Z,10.13
2023-04-05T09:17:07.038Z,12.18
2023-04-05T09:19:34.415Z,12.77
2023-04-05T09:22:07.594Z,16.15
2023-04-05T09:24:43.653Z,9.52
2023-04-05T09:27:18.779Z,14.10
2023-04-05T09:29:53.728Z,10.68
2023-04-05T09:32:27.853Z,9.65
2023-04-05T09:34:55.512Z,10.57
2023-04-05T09:37:26.305Z,11.65
2023-04-05T09:40:04.238Z,11.23
2023-04-05T09:42:43.469Z,13.55
2023-04-05T09:45:11.123Z,16.83
2023-04-05T09:47:58.129Z,13.77
2023-04-05T09:50:26.167Z,14.90
2023-04-05T09:53:16.654Z,22.38
2023-04-05T09:55:45.927Z,17.10
2023-04-05T09:58:22.787Z,14.85
2023-04-05T10:01:06.229Z,16.83
2023-04-05T10:03:49.128Z,15.85
2023-04-05T10:06:19.703Z,10.32
2023-04-05T10:08:51.641Z,13.23
2023-04-05T10:11:19.910Z,13.82
2023-04-05T10:13:49.322Z,10.18
2023-04-05T10:16:22.847Z,11.20
2023-04-05T10:18:52.340Z,8.93
2023-04-05T10:21:23.922Z,12.82
2023-04-05T10:24:01.445Z,12.48
2023-04-05T10:26:43.361Z,17.33
2023-04-05T10:29:15.352Z,14.80
2023-04-05T10:31:52.237Z,14.60
2023-04-05T10:34:39.117Z,13.00
2023-04-05T10:37:07.454Z,12.18
2023-04-05T10:39:46.954Z,12.43
2023-04-05T10:42:20.388Z,11.52
2023-04-05T10:45:00.420Z,11.23
2023-04-05T10:47:31.059Z,11.77
2023-04-05T10:50:03.833Z,13.20
2023-04-05T10:52:33.038Z,10.98
2023-04-05T10:55:03.441Z,11.68
2023-04-05T10:57:31.824Z,9.25
2023-04-05T11:00:00.939Z,10.63
2023-04-05T11:02:31.210Z,9.00
2023-04-05T11:05:05.062Z,13.32
2023-04-05T11:07:47.827Z,12.45
2023-04-05T11:10:19.569Z,13.48
2023-04-05T11:12:46.782Z,11.18
2023-04-05T11:15:33.372Z,12.80
2023-04-05T11:18:11.544Z,12.48
2023-04-05T11:20:42.816Z,13.65
2023-04-05T11:23:11.791Z,16.17
2023-04-05T11:25:42.885Z,11.25
2023-04-05T11:28:22.304Z,11.15
2023-04-05T11:30:56.927Z,12.80
2023-04-05T11:33:56.333Z,10.68
2023-04-05T11:36:33.818Z,11.13
2023-04-05T11:39:33.857Z,9.13
2023-04-05T11:42:12.379Z,9.82
2023-04-05T11:44:49.271Z,12.57
2023-04-05T11:47:23.502Z,11.02
2023-04-05T11:49:52.029Z,12.32
2023-04-05T11:52:21.348Z,13.65
2023-04-05T11:54:49.738Z,20.13
2023-04-05T11:57:23.800Z,13.13
2023-04-05T11:59:53.445Z,12.80
2023-04-05T12:02:22.093Z,11.88
2023-04-05T12:04:57.383Z,12.75
2023-04-05T12:07:29.007Z,13.80
2023-04-05T12:10:00.272Z,11.52
2023-04-05T12:12:27.607Z,17.40
2023-04-05T12:15:05.432Z,12.55
2023-04-05T12:17:47.287Z,10.82
2023-04-05T12:20:23.992Z,11.50
2023-04-05T12:22:53.833Z,14.57
2023-04-05T12:25:21.746Z,11.88
2023-04-05T12:27:49.175Z,12.90
2023-04-05T12:30:23.785Z,13.20
2023-04-05T12:32:52.920Z,11.00
2023-04-05T12:35:25.164Z,11.45
2023-04-05T12:37:52.521Z,13.57
2023-04-05T12:40:24.562Z,16.65
2023-04-05T12:42:52.366Z,15.70
2023-04-05T12:45:23.916Z,14.40
2023-04-05T12:48:00.529Z,13.27
2023-04-05T12:50:30.410Z,11.40
2023-04-05T12:52:58.884Z,11.18
2023-04-05T12:55:28.359Z,16.17
2023-04-05T12:57:59.639Z,12.07
2023-04-05T13:00:28.944Z,14.00
2023-04-05T13:02:58.306Z,12.60
2023-04-05T13:05:28.196Z,18.30
2023-04-05T13:07:55.539Z,11.65
2023-04-05T13:10:24.737Z,10.80
2023-04-05T13:12:52.178Z,12.93
2023-04-05T13:15:19.567Z,9.90
2023-04-05T13:17:50.185Z,16.58
2023-04-05T13:20:18.502Z,10.57
2023-04-05T13:22:46.965Z,10.45
2023-04-05T13:25:15.531Z,10.70
2023-04-05T13:27:43.229Z,11.68
2023-04-05T13:30:10.885Z,12.77
2023-04-05T13:32:38.392Z,12.35
2023-04-05T13:35:06.355Z,12.85
2023-04-05T13:37:33.673Z,13.27
2023-04-05T13:40:01.158Z,9.40
2023-04-05T13:42:28.454Z,10.88
2023-04-05T13:44:55.799Z,12.93
2023-04-05T13:47:23.011Z,13.35
2023-04-05T13:49:50.604Z,15.23
2023-04-05T13:52:18.209Z,9.95
2023-04-05T13:54:45.526Z,11.60
2023-04-05T13:57:14.312Z,11.98
2023-04-05T13:59:41.762Z,15.35
2023-04-05T14:02:09.452Z,11.77
2023-04-05T14:04:36.878Z,12.40
2023-04-05T14:07:04.867Z,12.93
2023-04-05T14:09:32.561Z,14.65
2023-04-05T14:12:01.491Z,11.68
2023-04-05T14:14:29.259Z,13.48
2023-04-05T14:16:56.592Z,15.48
2023-04-05T14:19:23.877Z,10.43
2023-04-05T14:21:51.578Z,11.82
2023-04-05T14:24:18.784Z,13.13
2023-04-05T14:26:50.006Z,11.90
2023-04-05T14:29:18.428Z,12.20
2023-04-05T14:31:46.245Z,13.40
2023-04-05T14:34:16.644Z,11.98
2023-04-05T14:36:44.438Z,12.35
2023-04-05T14:39:11.615Z,11.77
2023-04-05T14:41:39.123Z,11.20
2023-04-05T14:44:06.716Z,11.60
2023-04-05T14:46:34.048Z,11.00
2023-04-05T14:49:01.560Z,10.60
2023-04-05T14:51:37.133Z,12.25
2023-04-05T14:54:04.827Z,8.35
2023-04-05T14:56:32.197Z,14.00
2023-04-05T14:58:59.650Z,12.25
2023-04-05T15:01:26.960Z,13.50
2023-04-05T15:03:54.335Z,10.60
2023-04-05T15:06:21.545Z,11.65
2023-04-05T15:08:48.993Z,17.50
2023-04-05T15:11:16.255Z,9.60
2023-04-05T15:13:44.799Z,12.48
2023-04-05T15:16:12.007Z,15.45
2023-04-05T15:18:39.431Z,17.17
2023-04-05T15:21:07.544Z,12.25
2023-04-05T15:23:34.891Z,10.93
2023-04-05T15:26:02.086Z,11.38
2023-04-05T15:28:29.623Z,13.55
2023-04-05T15:30:57.028Z,13.43
2023-04-05T15:33:24.497Z,12.52
2023-04-05T15:35:51.774Z,15.73
2023-04-05T15:38:19.441Z,17.42
2023-04-05T15:40:52.563Z,15.70
2023-04-05T15:43:20.921Z,13.00
2023-04-05T15:45:48.215Z,14.02
2023-04-05T15:48:15.510Z,16.33
2023-04-05T15:50:43.197Z,12.63
2023-04-05T15:53:10.606Z,14.07
2023-04-05T15:55:37.759Z,12.85
2023-04-05T15:58:04.981Z,13.80
2023-04-05T16:00:33.666Z,15.68
2023-04-05T16:03:01.408Z,12.40
2023-04-05T16:05:28.924Z,13.80
2023-04-05T16:07:56.280Z,19.60
2023-04-05T16:10:23.847Z,14.77
2023-04-05T16:12:53.357Z,15.65
2023-04-05T16:15:20.639Z,18.85
2023-04-05T16:17:47.894Z,12.95
2023-04-05T16:20:15.525Z,13.82
2023-04-05T16:22:42.817Z,15.77
2023-04-05T16:25:09.957Z,15.40
2023-04-05T16:27:37.660Z,18.35
2023-04-05T16:30:05.899Z,16.73
2023-04-05T16:32:33.497Z,19.35
2023-04-05T16:35:01.004Z,17.27
2023-04-05T16:37:28.457Z,17.33
2023-04-05T16:39:56.088Z,13.50
2023-04-05T16:42:23.708Z,15.35
2023-04-05T16:44:51.184Z,16.13
2023-04-05T16:47:24.660Z,17.48
2023-04-05T16:52:20.056Z,17.08
2023-04-05T16:54:47.289Z,21.45
2023-04-05T16:57:14.664Z,19.92
2023-04-05T16:59:41.965Z,17.92
2023-04-05T17:02:09.445Z,20.50
2023-04-05T17:04:37.690Z,19.90
2023-04-05T17:07:05.115Z,18.35
2023-04-05T17:09:33.246Z,19.20
2023-04-05T17:12:00.507Z,15.80
2023-04-05T17:14:27.690Z,22.15
2023-04-05T17:16:55.457Z,17.70
2023-04-05T17:19:23.003Z,23.13
2023-04-05T17:21:52.341Z,18.77
2023-04-05T17:24:25.250Z,21.98
2023-04-05T17:26:52.504Z,18.73
2023-04-05T17:29:19.748Z,17.45
2023-04-05T17:31:46.899Z,19.85
2023-04-05T17:34:15.049Z,21.10
2023-04-05T17:36:45.901Z,19.42
2023-04-05T17:39:14.286Z,20.48
2023-04-05T17:41:41.786Z,28.83
2023-04-05T17:44:09.107Z,22.98
2023-04-05T17:46:41.599Z,20.35
2023-04-05T17:49:13.979Z,23.38
2023-04-05T17:51:41.318Z,20.13
2023-04-05T17:54:08.821Z,18.38
2023-04-05T17:56:36.561Z,19.80
2023-04-05T17:59:05.152Z,19.92
2023-04-05T18:01:36.436Z,22.25
2023-04-05T18:04:06.032Z,17.23
2023-04-05T18:06:33.994Z,17.85
2023-04-05T18:09:02.149Z,12.10
2023-04-05T18:11:29.631Z,15.30
2023-04-05T18:13:56.853Z,15.50
2023-04-05T18:16:24.170Z,14.38
2023-04-05T18:18:51.725Z,13.25
2023-04-05T18:21:19.292Z,15.95
2023-04-05T18:23:46.728Z,15.23
2023-04-05T18:26:14.477Z,16.27
2023-04-05T18:28:41.980Z,16.80
2023-04-05T18:31:10.212Z,15.20
2023-04-05T18:33:39.452Z,18.33
2023-04-05T18:36:07.921Z,17.08
2023-04-05T18:38:35.422Z,16.40
2023-04-05T18:41:04.057Z,16.65
2023-04-05T18:43:31.649Z,16.75
2023-04-05T18:45:58.946Z,17.30
2023-04-05T18:48:26.428Z,14.38
2023-04-05T18:50:54.218Z,17.83
2023-04-05T18:53:22.325Z,15.45
2023-04-05T18:55:53.574Z,13.15
2023-04-05T18:58:21.450Z,12.20
2023-04-05T19:00:48.622Z,12.23
2023-04-05T19:03:16.321Z,17.23
2023-04-05T19:05:57.980Z,17.38
2023-04-05T19:08:26.103Z,18.38
2023-04-05T19:10:53.422Z,20.27
2023-04-05T19:13:20.716Z,19.83
2023-04-05T19:15:48.050Z,14.85
2023-04-05T19:18:15.628Z,16.25
2023-04-05T19:20:43.207Z,20.70
2023-04-05T19:23:10.936Z,15.40
2023-04-05T19:25:38.759Z,13.68
2023-04-05T19:28:06.089Z,15.65
2023-04-05T19:30:33.683Z,18.60
2023-04-05T19:33:02.154Z,15.05
2023-04-05T19:35:31.882Z,13.93
2023-04-05T19:37:59.295Z,15.45
2023-04-05T19:40:27.043Z,15.10
2023-04-05T19:42:54.510Z,18.70
2023-04-05T19:45:29.670Z,15.88
2023-04-05T19:47:59.884Z,16.13
2023-04-05T19:50:48.416Z,16.58
2023-04-05T19:53:48.115Z,19.17
2023-04-05T19:56:19.575Z,24.45
2023-04-05T19:58:54.590Z,22.30
2023-04-05T20:01:39.112Z,23.65
2023-04-05T20:04:17.499Z,23.88
2023-04-05T20:06:54.268Z,24.95
2023-04-05T20:09:24.428Z,28.95
2023-04-05T20:12:02.065Z,27.55
2023-04-05T20:14:36.861Z,27.80
2023-04-05T20:17:05.187Z,26.48
2023-04-05T20:19:34.592Z,24.00
2023-04-05T20:22:02.629Z,23.10
2023-04-05T20:24:29.924Z,19.73
2023-04-05T20:26:57.485Z,25.13
2023-04-05T20:29:39.047Z,30.35
2023-04-05T20:32:06.669Z,32.90
2023-04-05T20:34:41.638Z,21.85
2023-04-05T20:37:12.182Z,21.40
2023-04-05T20:39:41.516Z,16.92
2023-04-05T20:42:11.484Z,19.13
2023-04-05T20:44:39.483Z,20.95
2023-04-05T20:47:08.459Z,21.52
2023-04-05T20:49:36.139Z,27.75
2023-04-05T20:52:07.978Z,24.55
2023-04-05T20:54:35.731Z,23.25
2023-04-05T20:57:03.117Z,21.38
2023-04-05T20:59:30.753Z,20.02
2023-04-05T21:01:58.138Z,24.25
2023-04-05T21:04:28.100Z,23.83
2023-04-05T21:06:58.189Z,19.73
2023-04-05T21:09:25.835Z,19.30
2023-04-05T21:11:53.242Z,21.20
2023-04-05T21:14:20.476Z,22.25
2023-04-05T21:16:47.801Z,18.48
2023-04-05T21:19:14.953Z,21.58
2023-04-05T21:21:42.150Z,23.13
2023-04-05T21:24:09.401Z,20.42
2023-04-05T21:26:36.798Z,20.48
2023-04-05T21:29:04.063Z,22.25
2023-04-05T21:31:31.486Z,20.75
2023-04-05T21:33:58.822Z,20.95
2023-04-05T21:36:27.271Z,23.55
2023-04-05T21:38:54.472Z,22.08
2023-04-05T21:41:21.707Z,23.08
2023-04-05T21:43:48.850Z,20.23
2023-04-05T21:46:16.634Z,20.27
2023-04-05T21:48:44.658Z,19.92
2023-04-05T21:51:11.885Z,19.17
2023-04-05T21:53:39.067Z,21.38
2023-04-05T21:56:06.337Z,19.85
2023-04-05T21:58:33.710Z,22.23
2023-04-05T22:01:01.645Z,20.10
2023-04-05T22:03:28.852Z,19.23
2023-04-05T22:05:56.228Z,18.95
2023-04-05T22:08:23.460Z,22.20
2023-04-05T22:10:51.088Z,20.48
2023-04-05T22:13:18.305Z,27.65
2023-04-05T22:15:45.960Z,22.27
2023-04-05T22:18:14.047Z,21.25
2023-04-05T22:20:41.376Z,19.73
2023-04-05T22:23:08.520Z,23.20
2023-04-05T22:25:36.116Z,23.13
2023-04-05T22:28:03.638Z,22.40
2023-04-05T22:30:42.840Z,24.23
2023-04-05T22:33:12.986Z,24.40
2023-04-05T22:35:41.428Z,25.45
2023-04-05T22:38:09.049Z,23.75
2023-04-05T22:40:36.498Z,21.83
2023-04-05T22:43:07.429Z,23.48
2023-04-05T22:45:34.944Z,21.50
2023-04-05T22:48:02.237Z,28.65
2023-04-05T22:50:29.552Z,24.02
2023-04-05T22:52:56.915Z,23.70
2023-04-05T22:55:24.714Z,23.90
2023-04-05T22:57:51.890Z,24.95
2023-04-05T23:00:19.503Z,26.02
2023-04-05T23:02:46.767Z,24.13
2023-04-05T23:05:14.149Z,24.35
2023-04-05T23:07:41.644Z,22.17
2023-04-05T23:10:09.487Z,23.38
2023-04-05T23:12:36.781Z,22.75
2023-04-05T23:15:08.231Z,23.40
2023-04-05T23:17:35.537Z,23.95
2023-04-05T23:20:05.880Z,25.33
2023-04-05T23:22:34.883Z,24.33
2023-04-05T23:25:06.173Z,26.30
2023-04-05T23:27:33.589Z,23.13
2023-04-05T23:30:00.941Z,22.48
2023-04-05T23:32:28.735Z,24.85
2023-04-05T23:34:56.234Z,26.92
2023-04-05T23:37:23.529Z,22.52
2023-04-05T23:39:50.786Z,27.23
2023-04-05T23:42:17.981Z,31.50
2023-04-05T23:44:45.417Z,23.73
2023-04-05T23:47:12.664Z,28.20
2023-04-05T23:49:39.917Z,25.85
2023-04-05T23:52:07.277Z,35.17
2023-04-05T23:54:34.498Z,25.02
2023-04-05T23:57:02.094Z,26.55
2023-04-05T23:59:29.531Z,28.83
